Time;durP1;ratioP1;P1;durP2;ratioP2;P2;SDS_P1;SDS_P2;PMS_P1;PMS_P2;Temp;Humidity;BMP_temperature;BMP_pressure;BME280_temperature;BME280_humidity;BME280_pressure;Samples;Min_cycle;Max_cycle;Signal;HPM_P1;HPM_P2
2024/01/16 00:00:23;;;;;;;10.13;2.17;;;-0.50;99.90;;;;;;7385889;19;20031;-68
2024/01/16 00:02:49;;;;;;;10.55;1.90;;;-0.50;99.90;;;;;;7383641;19;20018;-62
2024/01/16 00:05:15;;;;;;;6.57;1.58;;;-0.50;99.90;;;;;;7382429;19;20494;-69
2024/01/16 00:07:42;;;;;;;9.23;1.80;;;-0.60;99.90;;;;;;7377750;19;20018;-62
2024/01/16 00:10:08;;;;;;;8.13;1.80;;;-0.60;99.90;;;;;;7373369;19;20082;-62
2024/01/16 00:12:36;;;;;;;11.50;1.65;;;-0.50;99.90;;;;;;7372929;19;20055;-62
2024/01/16 00:15:03;;;;;;;6.57;1.60;;;-0.50;99.90;;;;;;7372832;19;20022;-62
2024/01/16 00:17:30;;;;;;;8.43;1.58;;;-0.50;99.90;;;;;;7368967;19;20018;-62
2024/01/16 00:20:16;;;;;;;12.30;2.03;;;-0.40;99.90;;;;;;7375814;19;20018;-62
2024/01/16 00:22:43;;;;;;;10.57;2.30;;;-0.40;99.90;;;;;;7379409;19;20053;-62
2024/01/16 00:25:10;;;;;;;8.13;1.55;;;-0.40;99.90;;;;;;7386144;19;20039;-62
2024/01/16 00:27:36;;;;;;;10.52;1.70;;;-0.40;99.90;;;;;;7376509;19;20443;-62
2024/01/16 00:30:05;;;;;;;9.43;1.45;;;-0.40;99.90;;;;;;7376898;19;20765;-62
2024/01/16 00:32:31;;;;;;;10.55;1.73;;;-0.40;99.90;;;;;;7378441;19;20018;-62
2024/01/16 00:34:57;;;;;;;5.63;1.38;;;-0.40;99.90;;;;;;7386752;19;20022;-68
2024/01/16 00:37:24;;;;;;;11.48;2.47;;;-0.40;99.90;;;;;;7391480;19;20019;-68
2024/01/16 00:39:50;;;;;;;7.32;1.80;;;-0.30;99.90;;;;;;7390839;19;20006;-68
2024/01/16 00:42:16;;;;;;;10.48;2.95;;;-0.40;99.90;;;;;;7392742;19;20014;-68
2024/01/16 00:44:43;;;;;;;12.20;1.85;;;-0.30;99.90;;;;;;7389116;19;20022;-68
2024/01/16 00:47:09;;;;;;;7.32;1.50;;;-0.30;99.90;;;;;;7395287;19;20036;-68
2024/01/16 00:49:38;;;;;;;8.82;2.25;;;-0.30;99.90;;;;;;7383211;19;20015;-62
2024/01/16 00:52:05;;;;;;;7.18;1.90;;;-0.40;99.90;;;;;;7380729;19;20039;-62
2024/01/16 00:54:31;;;;;;;6.93;1.42;;;-0.40;99.90;;;;;;7379016;19;20023;-62
2024/01/16 00:56:59;;;;;;;7.38;1.23;;;-0.40;99.90;;;;;;7381267;19;20086;-62
2024/01/16 00:59:26;;;;;;;9.25;1.98;;;-0.40;99.90;;;;;;7373674;19;20025;-62
2024/01/16 01:01:52;;;;;;;8.90;2.55;;;-0.30;99.90;;;;;;7380047;19;20859;-62
2024/01/16 01:04:19;;;;;;;4.65;1.50;;;-0.30;99.90;;;;;;7391315;19;20018;-68
2024/01/16 01:06:45;;;;;;;7.60;1.63;;;-0.30;99.90;;;;;;7392877;19;20042;-69
2024/01/16 01:09:12;;;;;;;7.30;1.33;;;-0.30;99.90;;;;;;7392091;19;20018;-69
2024/01/16 01:11:39;;;;;;;9.40;1.40;;;-0.30;99.90;;;;;;7395412;19;20026;-69
2024/01/16 01:14:06;;;;;;;6.65;1.80;;;-0.30;99.90;;;;;;7393360;19;20404;-69
2024/01/16 01:16:34;;;;;;;7.95;1.30;;;-0.30;99.90;;;;;;7390741;19;20010;-69
2024/01/16 01:19:03;;;;;;;9.55;1.75;;;-0.30;99.90;;;;;;7389558;19;20048;-69
2024/01/16 01:21:30;;;;;;;10.30;1.40;;;-0.30;99.90;;;;;;7391821;19;20014;-69
2024/01/16 01:24:01;;;;;;;5.18;0.98;;;-0.20;99.90;;;;;;7392617;19;20019;-69
2024/01/16 01:26:31;;;;;;;8.20;1.85;;;-0.20;99.90;;;;;;7385463;19;20014;-69
2024/01/16 01:28:57;;;;;;;7.97;1.40;;;-0.10;99.90;;;;;;7392404;19;20011;-69
2024/01/16 01:31:24;;;;;;;6.40;1.15;;;-0.20;99.90;;;;;;7390488;19;20043;-69
2024/01/16 01:34:10;;;;;;;6.75;1.10;;;-0.20;99.90;;;;;;7386462;19;20018;-62
2024/01/16 01:36:37;;;;;;;7.97;1.25;;;-0.20;99.90;;;;;;7377358;19;20682;-62
2024/01/16 01:39:03;;;;;;;8.65;1.30;;;-0.30;99.90;;;;;;7372750;19;20610;-63
2024/01/16 01:41:30;;;;;;;3.17;1.00;;;-0.30;99.90;;;;;;7371390;19;20018;-62
2024/01/16 01:43:56;;;;;;;3.03;1.10;;;-0.50;99.90;;;;;;7374497;19;20019;-62
2024/01/16 01:46:23;;;;;;;2.55;1.10;;;-0.50;99.90;;;;;;7374901;19;20021;-62
2024/01/16 01:48:50;;;;;;;6.28;1.17;;;-0.50;99.90;;;;;;7368004;19;20097;-62
2024/01/16 01:51:18;;;;;;;7.55;1.38;;;-0.50;99.90;;;;;;7375297;19;20018;-62
2024/01/16 01:53:46;;;;;;;4.55;0.93;;;-0.50;99.90;;;;;;7377076;19;20023;-62
2024/01/16 01:56:17;;;;;;;3.70;1.02;;;-0.50;99.90;;;;;;7375399;19;20022;-62
2024/01/16 01:58:53;;;;;;;5.60;1.50;;;-0.40;99.90;;;;;;7377245;19;20089;-62
2024/01/16 02:01:21;;;;;;;12.10;1.50;;;-0.50;99.90;;;;;;7371356;19;20018;-63
2024/01/16 02:03:50;;;;;;;7.10;1.48;;;-0.50;99.90;;;;;;7376404;19;20398;-63
2024/01/16 02:06:20;;;;;;;9.18;1.70;;;-0.50;99.90;;;;;;7383434;19;20705;-62
2024/01/16 02:08:48;;;;;;;8.57;2.35;;;-0.40;99.90;;;;;;7375507;19;20969;-62
2024/01/16 02:11:14;;;;;;;6.00;1.45;;;-0.40;99.90;;;;;;7375764;19;20039;-63
2024/01/16 02:13:42;;;;;;;9.55;1.48;;;-0.30;99.90;;;;;;7375464;19;20014;-62
2024/01/16 02:16:22;;;;;;;7.90;1.35;;;-0.30;99.90;;;;;;7372501;19;20018;-62
2024/01/16 02:18:51;;;;;;;9.75;1.13;;;-0.30;99.90;;;;;;7368852;19;20868;-62
2024/01/16 02:21:21;;;;;;;11.82;1.63;;;-0.30;99.90;;;;;;7375010;19;20023;-63
2024/01/16 02:23:48;;;;;;;7.03;1.33;;;-0.30;99.90;;;;;;7373074;19;20014;-62
2024/01/16 02:26:18;;;;;;;7.25;1.73;;;-0.20;99.90;;;;;;7373331;19;20801;-62
2024/01/16 02:28:46;;;;;;;9.95;1.65;;;-0.20;99.90;;;;;;7368808;19;20018;-62
2024/01/16 02:31:12;;;;;;;8.32;1.42;;;-0.20;99.90;;;;;;7376171;19;20022;-62
2024/01/16 02:33:40;;;;;;;2.00;0.98;;;-0.30;99.90;;;;;;7372882;19;20055;-62
2024/01/16 02:36:07;;;;;;;9.48;1.88;;;-0.20;99.90;;;;;;7374250;19;20549;-62
2024/01/16 02:38:34;;;;;;;9.27;1.35;;;-0.30;99.90;;;;;;7365064;19;20014;-62
2024/01/16 02:41:04;;;;;;;6.75;1.40;;;-0.20;99.90;;;;;;7374039;19;20029;-62
2024/01/16 02:43:32;;;;;;;6.35;1.50;;;-0.30;99.90;;;;;;7368576;19;20029;-63
2024/01/16 02:46:00;;;;;;;6.80;1.45;;;-0.30;99.90;;;;;;7370133;19;20369;-62
2024/01/16 02:48:27;;;;;;;5.18;1.52;;;-0.30;99.90;;;;;;7375145;19;20015;-62
2024/01/16 02:50:54;;;;;;;6.47;1.20;;;-0.30;99.90;;;;;;7369954;19;20030;-63
2024/01/16 02:53:21;;;;;;;7.32;1.80;;;-0.30;99.90;;;;;;7372232;19;20018;-62
2024/01/16 02:55:48;;;;;;;5.07;1.23;;;-0.30;99.90;;;;;;7371378;19;20022;-62
2024/01/16 02:58:15;;;;;;;8.65;1.95;;;-0.30;99.90;;;;;;7373378;19;20487;-62
2024/01/16 03:00:43;;;;;;;4.97;1.45;;;-0.30;99.90;;;;;;7369582;19;20362;-63
2024/01/16 03:03:14;;;;;;;4.70;1.25;;;-0.30;99.90;;;;;;7381860;19;20026;-69
2024/01/16 03:05:41;;;;;;;5.88;1.30;;;-0.30;99.90;;;;;;7388192;19;20430;-69
2024/01/16 03:08:08;;;;;;;6.25;1.65;;;-0.40;99.90;;;;;;7383880;19;20018;-69
2024/01/16 03:10:36;;;;;;;7.07;1.15;;;-0.40;99.90;;;;;;7382468;19;20078;-69
2024/01/16 03:13:02;;;;;;;9.20;1.45;;;-0.50;99.90;;;;;;7385870;19;20025;-69
2024/01/16 03:15:32;;;;;;;5.50;1.50;;;-0.50;99.90;;;;;;7378634;19;20703;-62
2024/01/16 03:18:00;;;;;;;7.93;1.40;;;-0.50;99.90;;;;;;7370199;19;20573;-62
2024/01/16 03:20:28;;;;;;;7.75;2.20;;;-0.50;99.90;;;;;;7372271;19;20605;-62
2024/01/16 03:22:54;;;;;;;2.33;0.88;;;-0.50;99.90;;;;;;7380648;19;20018;-69
2024/01/16 03:25:21;;;;;;;5.40;1.50;;;-0.60;99.90;;;;;;7386033;19;20589;-69
2024/01/16 03:27:48;;;;;;;8.65;1.25;;;-0.60;99.90;;;;;;7387422;19;20018;-69
2024/01/16 03:30:15;;;;;;;5.72;1.50;;;-0.60;99.90;;;;;;7385294;19;20038;-68
2024/01/16 03:32:41;;;;;;;4.47;1.23;;;-0.70;99.90;;;;;;7384681;19;20019;-68
2024/01/16 03:35:07;;;;;;;4.20;1.17;;;-0.70;99.90;;;;;;7386504;19;20383;-68
2024/01/16 03:37:34;;;;;;;6.47;1.30;;;-0.60;99.90;;;;;;7387369;19;20037;-69
2024/01/16 03:40:01;;;;;;;4.47;1.23;;;-0.60;99.90;;;;;;7382409;19;20026;-68
2024/01/16 03:42:27;;;;;;;3.97;0.95;;;-0.60;99.90;;;;;;7383079;19;20034;-69
2024/01/16 03:44:53;;;;;;;6.65;1.02;;;-0.60;99.90;;;;;;7383449;19;20073;-68
2024/01/16 03:47:20;;;;;;;5.47;1.25;;;-0.60;99.90;;;;;;7385517;19;20459;-69
2024/01/16 03:49:46;;;;;;;8.00;1.23;;;-0.60;99.90;;;;;;7383504;19;20078;-69
2024/01/16 03:52:12;;;;;;;6.85;1.38;;;-0.60;99.90;;;;;;7382169;19;20023;-69
2024/01/16 03:54:38;;;;;;;6.50;1.30;;;-0.60;99.90;;;;;;7385705;19;20110;-62
2024/01/16 03:57:05;;;;;;;4.50;1.25;;;-0.60;99.90;;;;;;7386570;19;20018;-69
2024/01/16 03:59:31;;;;;;;8.38;2.05;;;-0.60;99.90;;;;;;7385845;19;20022;-69
2024/01/16 04:01:58;;;;;;;8.85;1.38;;;-0.60;99.90;;;;;;7386663;19;20019;-69
2024/01/16 04:04:24;;;;;;;11.02;1.52;;;-0.60;99.90;;;;;;7389365;19;20015;-69
2024/01/16 04:07:12;;;;;;;12.15;1.70;;;-0.60;99.90;;;;;;7388062;19;20010;-69
2024/01/16 04:09:38;;;;;;;6.43;1.48;;;-0.60;99.90;;;;;;7386312;19;20015;-62
2024/01/16 04:12:05;;;;;;;7.82;1.20;;;-0.60;99.90;;;;;;7376842;19;20030;-62
2024/01/16 04:14:31;;;;;;;10.02;1.33;;;-0.50;99.90;;;;;;7380405;19;20023;-62
2024/01/16 04:17:18;;;;;;;5.97;3.05;;;-0.40;99.90;;;;;;7375491;19;20019;-62
2024/01/16 04:19:45;;;;;;;8.32;2.35;;;-0.40;99.90;;;;;;7373650;19;20031;-62
2024/01/16 04:22:11;;;;;;;6.55;1.35;;;-0.40;99.90;;;;;;7376999;19;20060;-62
2024/01/16 04:24:37;;;;;;;7.28;1.40;;;-0.30;99.90;;;;;;7373042;19;20030;-63
2024/01/16 04:27:04;;;;;;;7.90;1.65;;;-0.30;99.90;;;;;;7375446;19;20018;-62
2024/01/16 04:29:30;;;;;;;11.88;1.70;;;-0.30;99.90;;;;;;7368305;19;20015;-62
2024/01/16 04:31:57;;;;;;;12.10;1.95;;;-0.30;99.90;;;;;;7372692;19;20010;-62
2024/01/16 04:34:23;;;;;;;11.43;1.50;;;-0.30;99.90;;;;;;7373685;19;20019;-63
2024/01/16 04:36:49;;;;;;;13.43;2.58;;;-0.30;99.90;;;;;;7373284;19;20010;-62
2024/01/16 04:39:15;;;;;;;5.68;1.48;;;-0.30;99.90;;;;;;7371767;19;20007;-68
2024/01/16 04:41:41;;;;;;;6.82;1.35;;;-0.30;99.90;;;;;;7386774;19;20026;-69
2024/01/16 04:44:07;;;;;;;10.43;2.38;;;-0.30;99.90;;;;;;7385785;19;20029;-68
2024/01/16 04:46:34;;;;;;;11.60;2.05;;;-0.30;99.90;;;;;;7388084;19;20022;-69
2024/01/16 04:49:00;;;;;;;10.35;1.50;;;-0.20;99.90;;;;;;7387949;19;20015;-68
2024/01/16 04:51:26;;;;;;;7.53;1.77;;;-0.30;99.90;;;;;;7382987;19;20515;-69
2024/01/16 04:53:52;;;;;;;10.38;1.88;;;-0.20;99.90;;;;;;7381683;19;20039;-62
2024/01/16 04:56:22;;;;;;;6.55;1.40;;;-0.20;99.90;;;;;;7375109;19;20022;-62
2024/01/16 04:58:48;;;;;;;8.02;1.30;;;-0.20;99.90;;;;;;7374075;19;20373;-63
2024/01/16 05:01:15;;;;;;;12.65;3.08;;;-0.20;99.90;;;;;;7372889;19;20093;-62
2024/01/16 05:03:41;;;;;;;5.88;1.48;;;-0.10;99.90;;;;;;7372421;19;20018;-62
2024/01/16 05:06:14;;;;;;;6.70;1.42;;;-0.20;99.90;;;;;;7371827;19;20470;-62
2024/01/16 05:08:42;;;;;;;11.35;2.40;;;-0.20;99.90;;;;;;7371048;19;20097;-62
2024/01/16 05:11:08;;;;;;;8.95;1.45;;;-0.20;99.90;;;;;;7370225;19;20021;-62
2024/01/16 05:13:35;;;;;;;6.90;2.22;;;-0.20;99.90;;;;;;7371544;19;20014;-62
2024/01/16 05:16:01;;;;;;;6.68;1.45;;;-0.20;99.90;;;;;;7372412;19;20018;-62
2024/01/16 05:18:28;;;;;;;11.75;1.80;;;-0.20;99.90;;;;;;7370363;19;20095;-62
2024/01/16 05:20:58;;;;;;;10.30;2.38;;;-0.20;99.90;;;;;;7372565;19;20025;-62
2024/01/16 05:23:24;;;;;;;6.03;1.38;;;-0.10;99.90;;;;;;7371864;19;20051;-62
2024/01/16 05:25:50;;;;;;;9.05;1.63;;;-0.10;99.90;;;;;;7372377;19;20483;-62
2024/01/16 05:28:16;;;;;;;6.28;1.58;;;-0.20;99.90;;;;;;7374253;19;20383;-62
2024/01/16 05:30:44;;;;;;;4.38;1.25;;;-0.10;99.90;;;;;;7371337;19;20022;-62
2024/01/16 05:33:10;;;;;;;7.22;1.20;;;-0.10;99.90;;;;;;7372927;19;20371;-62
2024/01/16 05:35:36;;;;;;;8.40;1.40;;;-0.10;99.90;;;;;;7373480;19;20014;-62
2024/01/16 05:38:04;;;;;;;7.32;1.63;;;-0.10;99.90;;;;;;7373051;19;20014;-63
2024/01/16 05:40:30;;;;;;;9.48;1.52;;;-0.10;99.90;;;;;;7369589;19;20006;-63
2024/01/16 05:42:56;;;;;;;7.80;1.58;;;-0.10;99.90;;;;;;7367031;19;21095;-62
2024/01/16 05:45:22;;;;;;;5.82;1.55;;;-0.10;99.90;;;;;;7372125;19;20051;-62
2024/01/16 05:47:48;;;;;;;9.63;1.88;;;-0.10;99.90;;;;;;7372591;19;20018;-62
2024/01/16 05:50:18;;;;;;;8.85;1.48;;;0.00;99.90;;;;;;7368776;19;20029;-62
2024/01/16 05:52:44;;;;;;;6.95;1.70;;;0.00;99.90;;;;;;7373248;19;20089;-62
2024/01/16 05:55:10;;;;;;;4.25;1.40;;;0.00;99.90;;;;;;7371240;19;20018;-62
2024/01/16 05:57:37;;;;;;;8.63;1.90;;;0.00;99.90;;;;;;7373504;19;20078;-62
2024/01/16 06:00:05;;;;;;;7.22;1.85;;;0.00;99.90;;;;;;7370056;19;20054;-62
2024/01/16 06:02:34;;;;;;;5.77;1.70;;;0.00;99.90;;;;;;7371670;19;20110;-62
2024/01/16 06:05:02;;;;;;;11.90;1.83;;;0.10;99.90;;;;;;7380203;19;20052;-68
2024/01/16 06:07:48;;;;;;;11.35;1.88;;;0.10;99.90;;;;;;7381341;19;20014;-68
2024/01/16 06:10:15;;;;;;;6.38;1.73;;;0.10;99.90;;;;;;7383653;19;20034;-68
2024/01/16 06:12:42;;;;;;;6.60;1.50;;;0.00;99.90;;;;;;7379253;19;20030;-68
2024/01/16 06:15:11;;;;;;;8.93;1.88;;;0.00;99.90;;;;;;7379148;19;20018;-68
2024/01/16 06:17:37;;;;;;;10.30;1.75;;;0.00;99.90;;;;;;7381397;19;20083;-68
2024/01/16 06:20:04;;;;;;;9.82;2.13;;;0.10;99.90;;;;;;7380942;19;20014;-68
2024/01/16 06:22:33;;;;;;;7.93;2.38;;;0.00;99.90;;;;;;7381524;19;20834;-62
2024/01/16 06:24:59;;;;;;;6.30;1.90;;;0.10;99.90;;;;;;7371276;19;20030;-62
2024/01/16 06:27:25;;;;;;;9.38;1.90;;;0.10;99.90;;;;;;7379058;19;20043;-68
2024/01/16 06:29:52;;;;;;;7.28;2.17;;;0.10;99.90;;;;;;7381075;19;20504;-67
2024/01/16 06:32:18;;;;;;;9.02;2.40;;;0.10;99.90;;;;;;7379994;19;20094;-68
2024/01/16 06:34:44;;;;;;;8.00;2.72;;;0.10;99.90;;;;;;7383096;19;20122;-69
2024/01/16 06:37:10;;;;;;;10.43;2.80;;;0.10;99.90;;;;;;7379605;19;20019;-68
2024/01/16 06:39:37;;;;;;;11.10;2.95;;;0.10;99.90;;;;;;7377981;19;20382;-67
2024/01/16 06:42:04;;;;;;;8.43;2.80;;;0.10;99.90;;;;;;7380277;19;20284;-67
2024/01/16 06:44:31;;;;;;;6.72;3.03;;;0.00;99.90;;;;;;7370470;19;20038;-61
2024/01/16 06:46:57;;;;;;;7.95;2.72;;;0.10;99.90;;;;;;7367152;19;20086;-62
2024/01/16 06:49:23;;;;;;;9.73;3.33;;;0.10;99.90;;;;;;7373313;19;20052;-62
2024/01/16 06:51:50;;;;;;;11.13;3.53;;;0.10;99.90;;;;;;7367495;19;20074;-62
2024/01/16 06:54:16;;;;;;;10.23;3.60;;;0.10;99.90;;;;;;7373164;19;20022;-62
2024/01/16 06:56:42;;;;;;;12.52;3.67;;;0.10;99.90;;;;;;7370932;19;20025;-61
2024/01/16 06:59:08;;;;;;;14.35;3.53;;;0.10;99.90;;;;;;7372208;19;21339;-62
2024/01/16 07:01:37;;;;;;;7.38;3.67;;;0.20;99.90;;;;;;7375017;19;20111;-67
2024/01/16 07:04:03;;;;;;;10.05;3.83;;;0.10;99.90;;;;;;7384696;19;20597;-67
2024/01/16 07:06:29;;;;;;;12.52;4.20;;;0.20;99.90;;;;;;7387281;19;20010;-68
2024/01/16 07:08:55;;;;;;;9.93;4.00;;;0.10;99.90;;;;;;7371022;19;20014;-61
2024/01/16 07:11:21;;;;;;;9.93;4.00;;;0.10;99.90;;;;;;7369974;19;20021;-62
2024/01/16 07:13:48;;;;;;;13.43;4.15;;;0.10;99.90;;;;;;7372150;19;20763;-62
2024/01/16 07:16:14;;;;;;;13.60;4.93;;;0.10;99.90;;;;;;7372980;19;20491;-67
2024/01/16 07:19:02;;;;;;;9.38;4.15;;;0.10;99.90;;;;;;7368910;19;20029;-62
2024/01/16 07:21:28;;;;;;;10.63;4.47;;;0.20;99.90;;;;;;7370753;19;21514;-62
2024/01/16 07:23:55;;;;;;;10.95;4.65;;;0.20;99.90;;;;;;7370952;19;20366;-67
2024/01/16 07:26:22;;;;;;;11.38;4.65;;;0.20;99.90;;;;;;7387332;19;20019;-67
2024/01/16 07:28:49;;;;;;;10.23;4.25;;;0.20;99.90;;;;;;7388239;19;20530;-67
2024/01/16 07:31:16;;;;;;;9.32;4.85;;;0.20;99.90;;;;;;7395882;19;20403;-67
2024/01/16 07:33:43;;;;;;;8.65;4.28;;;0.20;99.90;;;;;;7394071;19;20018;-67
2024/01/16 07:36:09;;;;;;;12.60;5.03;;;0.10;99.90;;;;;;7390398;19;20015;-67
2024/01/16 07:38:36;;;;;;;10.10;4.65;;;0.10;99.90;;;;;;7386512;19;20015;-66
2024/01/16 07:41:03;;;;;;;14.52;5.63;;;0.10;99.90;;;;;;7385342;19;20018;-67
2024/01/16 07:43:29;;;;;;;10.75;4.85;;;0.20;99.90;;;;;;7387744;19;20018;-62
2024/01/16 07:45:55;;;;;;;10.35;4.53;;;0.20;99.90;;;;;;7376581;19;20023;-63
2024/01/16 07:48:22;;;;;;;10.38;5.20;;;0.20;99.90;;;;;;7379682;19;20015;-62
2024/01/16 07:50:49;;;;;;;8.80;4.93;;;0.20;99.90;;;;;;7382489;19;20021;-67
2024/01/16 07:53:15;;;;;;;10.25;5.40;;;0.20;99.90;;;;;;7387836;19;20422;-67
2024/01/16 07:55:42;;;;;;;8.95;5.20;;;0.20;99.90;;;;;;7386910;19;20078;-67
2024/01/16 07:58:12;;;;;;;12.48;5.60;;;0.20;99.90;;;;;;7384434;19;20025;-67
2024/01/16 08:00:39;;;;;;;11.95;5.53;;;0.20;99.90;;;;;;7382947;19;20463;-67
2024/01/16 08:03:08;;;;;;;14.60;6.00;;;0.20;99.90;;;;;;7383777;19;20010;-67
2024/01/16 08:05:34;;;;;;;10.73;5.63;;;0.20;99.90;;;;;;7386053;19;20373;-67
2024/01/16 08:08:01;;;;;;;11.23;5.30;;;0.20;99.90;;;;;;7385321;19;20110;-67
2024/01/16 08:10:27;;;;;;;10.15;5.05;;;0.20;99.90;;;;;;7378417;19;20025;-65
2024/01/16 08:12:54;;;;;;;9.07;5.38;;;0.30;99.90;;;;;;7382787;19;20014;-68
2024/01/16 08:15:20;;;;;;;13.68;6.47;;;0.30;99.90;;;;;;7386083;19;20412;-68
2024/01/16 08:17:53;;;;;;;14.57;5.82;;;0.30;99.90;;;;;;7390389;19;20037;-68
2024/01/16 08:20:20;;;;;;;15.13;5.85;;;0.30;99.90;;;;;;7387103;19;20026;-68
2024/01/16 08:22:46;;;;;;;12.05;5.13;;;0.30;99.90;;;;;;7393178;19;20032;-67
2024/01/16 08:25:13;;;;;;;10.95;5.38;;;0.30;99.90;;;;;;7391043;19;20754;-67
2024/01/16 08:27:39;;;;;;;12.82;6.50;;;0.30;99.90;;;;;;7388123;19;20017;-67
2024/01/16 08:30:07;;;;;;;11.10;6.03;;;0.40;99.90;;;;;;7388114;19;20811;-67
2024/01/16 08:32:33;;;;;;;12.10;6.88;;;0.40;99.90;;;;;;7386879;19;20031;-62
2024/01/16 08:34:59;;;;;;;14.45;6.45;;;0.50;99.90;;;;;;7375622;19;20022;-62
2024/01/16 08:37:25;;;;;;;11.93;6.88;;;0.50;99.90;;;;;;7375818;19;20021;-62
2024/01/16 08:39:52;;;;;;;14.15;6.97;;;0.50;99.90;;;;;;7371158;19;20011;-62
2024/01/16 08:42:18;;;;;;;12.20;7.72;;;0.50;99.90;;;;;;7375875;19;20654;-62
2024/01/16 08:44:44;;;;;;;11.57;7.22;;;0.60;99.90;;;;;;7373590;19;20011;-62
2024/01/16 08:47:10;;;;;;;22.52;8.30;;;0.70;99.90;;;;;;7375171;19;20018;-62
2024/01/16 08:49:38;;;;;;;14.18;7.95;;;0.70;99.90;;;;;;7375844;19;20089;-62
2024/01/16 08:52:05;;;;;;;21.65;8.25;;;0.80;99.90;;;;;;7374980;19;20912;-62
2024/01/16 08:54:32;;;;;;;15.80;7.35;;;0.80;99.90;;;;;;7379560;19;20018;-63
2024/01/16 08:56:58;;;;;;;13.13;7.13;;;0.90;99.90;;;;;;7370722;19;20014;-62
2024/01/16 08:59:25;;;;;;;11.88;7.68;;;0.90;99.90;;;;;;7374775;19;20019;-62
2024/01/16 09:01:51;;;;;;;12.52;7.25;;;0.90;99.90;;;;;;7375779;19;20094;-62
2024/01/16 09:04:18;;;;;;;12.48;6.80;;;1.00;99.90;;;;;;7375711;19;20045;-62
2024/01/16 09:06:45;;;;;;;12.48;7.00;;;1.00;99.90;;;;;;7378827;19;20035;-62
2024/01/16 09:09:12;;;;;;;14.57;7.05;;;1.00;99.90;;;;;;7376396;19;20010;-63
2024/01/16 09:11:38;;;;;;;13.63;7.15;;;1.00;99.90;;;;;;7376546;19;20053;-62
2024/01/16 09:14:04;;;;;;;11.80;7.07;;;1.00;99.90;;;;;;7376272;19;20669;-62
2024/01/16 09:16:31;;;;;;;11.45;6.55;;;1.10;99.90;;;;;;7375940;19;20015;-63
2024/01/16 09:18:57;;;;;;;13.20;6.65;;;1.10;99.90;;;;;;7375175;19;20018;-62
2024/01/16 09:21:23;;;;;;;13.93;6.70;;;1.10;99.90;;;;;;7376798;19;20774;-63
2024/01/16 09:23:50;;;;;;;16.27;7.35;;;1.20;99.90;;;;;;7375826;19;20014;-62
2024/01/16 09:26:17;;;;;;;11.75;7.28;;;1.20;99.90;;;;;;7382057;19;20006;-62
2024/01/16 09:28:44;;;;;;;16.13;8.77;;;1.20;99.90;;;;;;7375779;19;20022;-63
2024/01/16 09:31:10;;;;;;;17.77;9.75;;;1.10;99.90;;;;;;7376337;19;20815;-68
2024/01/16 09:33:56;;;;;;;17.27;9.73;;;1.20;99.90;;;;;;7373614;19;20934;-65
2024/01/16 09:36:22;;;;;;;22.23;10.98;;;1.20;99.90;;;;;;7382250;19;20015;-66
2024/01/16 09:38:49;;;;;;;15.23;10.77;;;1.20;99.90;;;;;;7382444;19;20060;-66
2024/01/16 09:41:15;;;;;;;20.35;10.88;;;1.30;99.90;;;;;;7377203;19;20688;-63
2024/01/16 09:43:43;;;;;;;22.02;10.43;;;1.30;99.90;;;;;;7375399;19;20655;-63
2024/01/16 09:46:11;;;;;;;15.60;10.35;;;1.30;99.90;;;;;;7373865;19;20037;-62
2024/01/16 09:48:38;;;;;;;19.77;10.73;;;1.40;99.90;;;;;;7374812;19;20101;-62
2024/01/16 09:51:07;;;;;;;17.60;10.43;;;1.40;99.90;;;;;;7372127;19;20478;-62
2024/01/16 09:53:36;;;;;;;22.52;9.93;;;1.40;99.90;;;;;;7375086;19;20026;-62
2024/01/16 09:56:06;;;;;;;18.88;9.85;;;1.50;99.90;;;;;;7376186;19;20023;-62
2024/01/16 09:58:36;;;;;;;13.77;9.45;;;1.40;99.90;;;;;;7372416;19;20070;-62
2024/01/16 10:01:02;;;;;;;15.45;9.73;;;1.40;99.90;;;;;;7374513;19;20022;-62
2024/01/16 10:03:31;;;;;;;16.02;9.10;;;1.50;99.90;;;;;;7378735;19;20022;-62
2024/01/16 10:05:59;;;;;;;16.70;8.95;;;1.50;99.90;;;;;;7375272;19;20033;-63
2024/01/16 10:08:28;;;;;;;18.08;9.40;;;1.40;99.90;;;;;;7374142;19;20523;-62
2024/01/16 10:10:54;;;;;;;15.23;9.20;;;1.40;99.90;;;;;;7376832;19;20029;-63
2024/01/16 10:13:21;;;;;;;14.52;9.15;;;1.40;99.90;;;;;;7377494;19;20014;-63
2024/01/16 10:15:50;;;;;;;16.65;8.13;;;1.40;99.90;;;;;;7375730;19;20094;-63
2024/01/16 10:18:32;;;;;;;15.05;8.55;;;1.40;99.90;;;;;;7377490;19;20035;-63
2024/01/16 10:20:58;;;;;;;13.80;8.43;;;1.40;99.90;;;;;;7382399;19;20023;-66
2024/01/16 10:23:29;;;;;;;13.05;7.97;;;1.40;99.90;;;;;;7378296;19;20026;-66
2024/01/16 10:26:08;;;;;;;13.37;7.40;;;1.40;99.90;;;;;;7378716;19;20019;-66
2024/01/16 10:28:40;;;;;;;12.93;8.82;;;1.50;99.90;;;;;;7374241;19;20026;-66
2024/01/16 10:31:14;;;;;;;11.32;6.68;;;1.50;99.90;;;;;;7372125;19;20391;-66
2024/01/16 10:33:40;;;;;;;10.52;5.57;;;1.60;99.90;;;;;;7377022;19;20022;-66
2024/01/16 10:36:16;;;;;;;9.07;4.90;;;1.60;99.90;;;;;;7375803;19;20013;-65
2024/01/16 10:38:44;;;;;;;7.88;4.72;;;1.60;99.90;;;;;;7374330;19;20103;-66
2024/01/16 10:41:15;;;;;;;11.20;4.63;;;1.70;99.90;;;;;;7374115;19;20022;-66
2024/01/16 10:43:42;;;;;;;11.77;5.00;;;1.70;99.90;;;;;;7378020;19;20023;-66
2024/01/16 10:46:12;;;;;;;6.75;3.50;;;1.70;99.90;;;;;;7375169;19;20030;-66
2024/01/16 10:48:41;;;;;;;9.18;3.63;;;1.70;99.90;;;;;;7375329;19;20598;-66
2024/01/16 10:51:11;;;;;;;7.72;3.33;;;1.70;99.90;;;;;;7376297;19;20536;-66
2024/01/16 10:53:41;;;;;;;7.22;3.28;;;1.80;99.90;;;;;;7377807;19;20372;-66
2024/01/16 10:56:11;;;;;;;8.50;2.92;;;1.80;99.90;;;;;;7375092;19;20094;-66
2024/01/16 10:58:42;;;;;;;7.43;2.63;;;1.80;99.90;;;;;;7377677;19;20046;-66
2024/01/16 11:01:16;;;;;;;10.23;3.00;;;1.80;99.90;;;;;;7376657;19;20018;-66
2024/01/16 11:03:50;;;;;;;9.77;2.90;;;1.80;99.90;;;;;;7378438;19;20034;-63
2024/01/16 11:06:36;;;;;;;7.95;2.47;;;1.70;99.90;;;;;;7373984;19;20613;-63
2024/01/16 11:09:03;;;;;;;8.45;3.20;;;1.70;99.90;;;;;;7370628;19;20126;-66
2024/01/16 11:11:53;;;;;;;8.80;2.20;;;1.70;99.90;;;;;;7376720;19;20022;-66
2024/01/16 11:14:22;;;;;;;7.70;1.98;;;1.70;99.90;;;;;;7377296;19;20082;-66
2024/01/16 11:16:50;;;;;;;7.25;2.10;;;1.70;99.90;;;;;;7376600;19;20014;-66
2024/01/16 11:19:19;;;;;;;9.15;1.90;;;1.60;99.90;;;;;;7375973;19;20029;-66
2024/01/16 11:21:46;;;;;;;8.07;1.75;;;1.60;99.90;;;;;;7375994;19;20015;-66
2024/01/16 11:24:13;;;;;;;7.97;1.85;;;1.60;99.90;;;;;;7379094;19;20017;-66
2024/01/16 11:26:40;;;;;;;7.05;1.60;;;1.50;99.90;;;;;;7379426;19;20463;-65
2024/01/16 11:29:26;;;;;;;7.22;1.90;;;1.50;99.90;;;;;;7375546;19;20099;-66
2024/01/16 11:31:53;;;;;;;9.48;2.60;;;1.50;99.90;;;;;;7374892;19;20019;-66
2024/01/16 11:34:42;;;;;;;7.57;1.77;;;1.40;99.90;;;;;;7375631;19;20029;-62
2024/01/16 11:37:11;;;;;;;10.68;2.35;;;1.40;99.90;;;;;;7374115;19;20030;-63
2024/01/16 11:39:37;;;;;;;4.72;1.75;;;1.40;99.90;;;;;;7373593;19;20026;-65
2024/01/16 11:42:04;;;;;;;4.60;1.80;;;1.30;99.90;;;;;;7373125;19;20027;-63
2024/01/16 11:44:50;;;;;;;7.43;1.70;;;1.30;99.90;;;;;;7376847;19;20022;-66
2024/01/16 11:47:19;;;;;;;5.28;1.70;;;1.30;99.90;;;;;;7374319;19;20041;-63
2024/01/16 11:50:06;;;;;;;5.30;2.45;;;1.30;99.90;;;;;;7372784;19;20485;-63
2024/01/16 11:52:46;;;;;;;7.57;2.20;;;1.30;99.90;;;;;;7374468;19;20019;-63
2024/01/16 11:55:32;;;;;;;8.35;2.45;;;1.30;99.90;;;;;;7370610;19;20459;-63
2024/01/16 11:58:16;;;;;;;7.50;2.55;;;1.30;99.90;;;;;;7374461;19;20134;-63
2024/01/16 12:00:52;;;;;;;13.38;3.63;;;1.40;99.90;;;;;;7371290;19;20018;-63
2024/01/16 12:03:21;;;;;;;11.77;3.90;;;1.40;99.90;;;;;;7373083;19;20106;-63
2024/01/16 12:05:57;;;;;;;5.68;3.60;;;1.40;99.90;;;;;;7374135;19;20403;-63
2024/01/16 12:08:24;;;;;;;9.65;3.30;;;1.40;99.90;;;;;;7370505;19;20871;-63
2024/01/16 12:10:50;;;;;;;12.82;4.53;;;1.50;99.90;;;;;;7374356;19;20022;-63
2024/01/16 12:13:17;;;;;;;13.77;4.75;;;1.50;99.90;;;;;;7374788;19;20538;-63
2024/01/16 12:15:44;;;;;;;9.23;4.95;;;1.50;99.90;;;;;;7376249;19;20052;-61
2024/01/16 12:18:10;;;;;;;11.48;5.70;;;1.50;99.90;;;;;;7381275;19;20014;-66
2024/01/16 12:20:37;;;;;;;10.88;6.57;;;1.50;99.90;;;;;;7379675;19;20019;-66
2024/01/16 12:23:07;;;;;;;14.57;7.30;;;1.60;99.90;;;;;;7384342;19;20044;-67
2024/01/16 12:25:35;;;;;;;13.88;8.50;;;1.70;99.90;;;;;;7385740;19;20524;-67
2024/01/16 12:28:06;;;;;;;22.83;10.23;;;1.70;99.90;;;;;;7384090;19;20010;-66
2024/01/16 12:30:36;;;;;;;15.60;9.23;;;1.80;99.90;;;;;;7382580;19;20391;-66
2024/01/16 12:33:09;;;;;;;13.98;8.50;;;1.80;99.90;;;;;;7379485;19;20039;-63
2024/01/16 12:35:46;;;;;;;16.10;10.10;;;1.70;99.90;;;;;;7381761;19;20021;-63
2024/01/16 12:38:14;;;;;;;12.45;7.95;;;1.80;99.90;;;;;;7383464;19;20018;-67
2024/01/16 12:40:49;;;;;;;12.85;8.57;;;1.70;99.90;;;;;;7380200;19;20025;-63
2024/01/16 12:43:19;;;;;;;11.85;8.27;;;1.80;99.90;;;;;;7384976;19;20019;-63
2024/01/16 12:45:45;;;;;;;13.57;8.75;;;1.80;99.90;;;;;;7380448;19;20130;-67
2024/01/16 12:48:12;;;;;;;15.43;8.07;;;1.90;99.90;;;;;;7379429;19;20010;-67
2024/01/16 12:50:39;;;;;;;11.25;7.30;;;2.20;99.90;;;;;;7379527;19;20773;-63
2024/01/16 12:53:06;;;;;;;12.15;8.15;;;2.50;99.90;;;;;;7380230;19;20500;-67